Time;durP1;ratioP1;P1;durP2;ratioP2;P2;SDS_P1;SDS_P2;PMS_P1;PMS_P2;Temp;Humidity;BMP_temperature;BMP_pressure;BME280_temperature;BME280_humidity;BME280_pressure;Samples;Min_cycle;Max_cycle;Signal;HPM_P1;HPM_P2
2022/06/16 00:01:34;;;;;;;73.70;49.40;;;26.00;99.90;;;;;;5056714;28;20102;-66
2022/06/16 00:04:01;;;;;;;77.50;50.67;;;26.00;99.90;;;;;;5057338;28;20436;-67
2022/06/16 00:06:28;;;;;;;83.97;53.50;;;26.00;99.90;;;;;;5056522;28;20029;-66
2022/06/16 00:08:55;;;;;;;92.53;57.00;;;25.90;99.90;;;;;;5054332;28;20384;-66
2022/06/16 00:11:21;;;;;;;78.82;53.92;;;25.90;99.90;;;;;;5056668;28;20070;-66
2022/06/16 00:13:49;;;;;;;80.50;54.90;;;26.00;99.90;;;;;;5056598;28;20043;-66
2022/06/16 00:16:18;;;;;;;77.28;53.90;;;25.90;99.90;;;;;;5056572;28;20075;-66
2022/06/16 00:18:44;;;;;;;76.93;55.47;;;26.00;99.90;;;;;;5060041;28;20040;-65
2022/06/16 00:21:12;;;;;;;80.70;55.75;;;26.00;99.90;;;;;;5056675;28;20022;-65
2022/06/16 00:23:39;;;;;;;70.93;55.97;;;26.00;99.90;;;;;;5057030;28;20029;-66
2022/06/16 00:26:25;;;;;;;74.13;54.90;;;26.00;99.90;;;;;;5071370;28;20471;-65
2022/06/16 00:28:52;;;;;;;97.03;62.42;;;26.10;99.90;;;;;;5070464;28;20170;-65
2022/06/16 00:31:22;;;;;;;146.52;110.22;;;26.10;99.90;;;;;;5076396;28;20020;-65
2022/06/16 00:33:49;;;;;;;91.80;62.08;;;26.10;99.90;;;;;;5076219;28;20020;-65
2022/06/16 00:36:16;;;;;;;83.78;58.90;;;26.20;99.90;;;;;;5059019;28;20025;-64
2022/06/16 00:38:43;;;;;;;79.82;55.10;;;26.20;99.90;;;;;;5037224;28;20411;-64
2022/06/16 00:41:10;;;;;;;63.15;50.70;;;26.20;99.90;;;;;;5056034;28;20025;-65
2022/06/16 00:43:37;;;;;;;69.38;49.78;;;26.30;99.90;;;;;;5056096;28;20035;-65
2022/06/16 00:46:05;;;;;;;71.20;48.92;;;26.40;99.90;;;;;;5056148;28;20029;-64
2022/06/16 00:48:36;;;;;;;65.22;49.38;;;26.40;99.90;;;;;;5056481;28;20126;-64
2022/06/16 00:51:29;;;;;;;62.42;50.40;;;26.50;99.90;;;;;;5057201;28;20104;-65
2022/06/16 00:54:05;;;;;;;54.35;42.53;;;26.50;99.90;;;;;;5052934;28;20087;-64
2022/06/16 00:56:32;;;;;;;212.25;148.48;;;26.50;99.90;;;;;;5068966;28;20032;-64
2022/06/16 00:59:02;;;;;;;46.72;37.28;;;26.60;99.90;;;;;;5072472;28;20465;-63
2022/06/16 01:01:30;;;;;;;48.28;36.08;;;26.60;99.90;;;;;;5056691;28;20064;-64
2022/06/16 01:06:45;;;;;;;50.78;36.22;;;26.70;99.90;;;;;;5044386;28;20036;-64
2022/06/16 01:09:18;;;;;;;44.53;33.35;;;26.80;99.90;;;;;;5056500;28;20025;-64
2022/06/16 01:15:08;;;;;;;44.97;29.80;;;27.00;99.90;;;;;;5067473;28;20494;-64
2022/06/16 01:18:14;;;;;;;45.08;27.40;;;27.00;99.90;;;;;;5062428;28;20343;-64
2022/06/16 01:20:54;;;;;;;47.60;31.40;;;27.10;99.90;;;;;;5051037;28;20487;-65
2022/06/16 01:23:34;;;;;;;43.90;29.63;;;27.10;99.90;;;;;;5074566;28;20059;-63
2022/06/16 01:26:23;;;;;;;50.10;24.42;;;27.10;99.90;;;;;;5075370;28;20021;-64
2022/06/16 01:29:00;;;;;;;120.40;84.13;;;27.00;99.90;;;;;;5064428;28;20032;-64
2022/06/16 01:31:40;;;;;;;53.90;30.23;;;27.10;99.90;;;;;;5065330;28;20017;-64
2022/06/16 01:34:26;;;;;;;59.00;34.25;;;27.00;99.90;;;;;;5055279;28;20032;-64
2022/06/16 01:37:05;;;;;;;177.90;121.50;;;27.10;99.90;;;;;;5057352;28;20056;-64
2022/06/16 01:39:42;;;;;;;192.43;135.50;;;27.10;99.90;;;;;;5054349;28;20404;-65
2022/06/16 01:42:18;;;;;;;90.18;53.63;;;27.20;99.90;;;;;;5034923;28;20391;-65
2022/06/16 01:44:53;;;;;;;98.43;72.75;;;27.20;99.90;;;;;;5044400;28;20380;-65
2022/06/16 01:47:22;;;;;;;65.03;43.88;;;27.30;99.90;;;;;;5053768;28;20494;-65
2022/06/16 01:49:57;;;;;;;71.63;50.25;;;27.30;99.90;;;;;;5054804;28;20833;-64
2022/06/16 01:52:31;;;;;;;73.07;53.53;;;27.30;99.90;;;;;;5070675;28;20024;-65
2022/06/16 01:55:03;;;;;;;339.98;234.07;;;27.40;99.90;;;;;;5069887;28;20032;-64
2022/06/16 01:57:37;;;;;;;131.35;87.25;;;27.40;99.90;;;;;;5054531;28;20387;-64
2022/06/16 02:00:18;;;;;;;88.72;65.03;;;27.40;99.90;;;;;;5054881;28;20025;-64
2022/06/16 02:02:50;;;;;;;56.30;42.05;;;27.50;99.90;;;;;;5050662;28;20025;-64
2022/06/16 02:05:20;;;;;;;;;;;27.60;99.90;;;;;;5072629;28;20029;-65
2022/06/16 02:08:07;;;;;;;135.18;112.38;;;27.60;99.90;;;;;;5057766;28;19904;-66
2022/06/16 02:10:38;;;;;;;67.50;46.95;;;27.70;99.90;;;;;;5047051;28;20526;-63
2022/06/16 02:13:08;;;;;;;187.65;168.32;;;27.80;99.90;;;;;;5040641;28;20045;-65
2022/06/16 02:15:41;;;;;;;53.88;40.60;;;27.80;99.90;;;;;;5036562;28;20381;-65
2022/06/16 02:18:12;;;;;;;104.80;93.13;;;27.90;99.90;;;;;;5061431;28;20045;-65
2022/06/16 02:20:58;;;;;;;97.20;79.55;;;27.90;99.90;;;;;;5059279;28;20013;-64
2022/06/16 02:23:25;;;;;;;76.75;65.40;;;28.00;99.90;;;;;;5058459;28;20021;-66
2022/06/16 02:25:56;;;;;;;134.55;104.80;;;28.10;99.90;;;;;;5061678;28;20017;-66
2022/06/16 02:28:23;;;;;;;83.80;64.00;;;28.10;99.90;;;;;;5067372;28;20025;-66
2022/06/16 02:31:20;;;;;;;82.38;62.58;;;28.10;99.90;;;;;;5058201;28;20595;-66
2022/06/16 02:34:17;;;;;;;29.25;22.13;;;28.20;99.90;;;;;;5068547;28;20035;-67
2022/06/16 02:37:10;;;;;;;70.18;56.60;;;28.30;99.90;;;;;;5067487;28;20028;-66
2022/06/16 02:39:58;;;;;;;117.63;102.00;;;28.30;99.90;;;;;;5070111;28;20028;-64
2022/06/16 02:42:44;;;;;;;74.95;65.20;;;28.40;99.90;;;;;;5070582;28;20103;-66
2022/06/16 02:45:23;;;;;;;33.50;25.48;;;28.50;99.90;;;;;;5060277;28;20055;-65
2022/06/16 02:48:10;;;;;;;76.60;59.67;;;28.50;99.90;;;;;;5067304;28;20111;-65
2022/06/16 02:50:56;;;;;;;25.65;19.52;;;28.60;99.90;;;;;;5073167;28;20025;-64
2022/06/16 02:53:57;;;;;;;43.30;29.85;;;28.70;99.90;;;;;;5073644;28;20055;-65
2022/06/16 02:56:33;;;;;;;27.08;20.05;;;28.80;99.90;;;;;;5069508;28;20035;-65
2022/06/16 02:59:14;;;;;;;72.93;51.28;;;28.90;99.90;;;;;;5073194;28;20471;-65
2022/06/16 03:01:42;;;;;;;135.70;91.23;;;29.00;99.90;;;;;;5053640;28;20498;-65
2022/06/16 03:04:14;;;;;;;33.50;21.50;;;29.00;99.90;;;;;;5058718;28;20482;-65
2022/06/16 03:06:42;;;;;;;63.25;43.92;;;29.10;99.90;;;;;;5058241;28;20021;-64
2022/06/16 03:09:09;;;;;;;43.58;26.35;;;29.10;99.90;;;;;;5054267;28;20036;-65
2022/06/16 03:11:37;;;;;;;90.50;63.60;;;29.30;99.90;;;;;;5061562;28;20514;-65
2022/06/16 03:14:04;;;;;;;32.40;22.60;;;29.30;99.90;;;;;;5059132;28;20038;-66
2022/06/16 03:16:32;;;;;;;31.52;22.90;;;29.30;99.90;;;;;;5062737;28;20092;-64
2022/06/16 03:18:59;;;;;;;16.15;11.85;;;29.30;99.90;;;;;;5047230;28;20116;-65
2022/06/16 03:21:26;;;;;;;34.70;21.30;;;29.30;99.90;;;;;;5050719;28;20071;-65
2022/06/16 03:23:52;;;;;;;27.67;16.92;;;29.30;99.90;;;;;;5052060;28;20075;-64
2022/06/16 03:26:19;;;;;;;74.55;54.25;;;29.30;99.90;;;;;;5050770;28;20036;-64
2022/06/16 03:28:45;;;;;;;65.32;50.13;;;29.30;99.90;;;;;;5050320;28;20029;-64
2022/06/16 03:31:12;;;;;;;21.67;14.63;;;29.30;99.90;;;;;;5047429;28;20021;-64
2022/06/16 03:33:39;;;;;;;34.78;22.90;;;29.40;99.90;;;;;;5046348;28;20105;-63
2022/06/16 03:36:05;;;;;;;40.15;28.20;;;29.40;99.90;;;;;;5047302;28;20025;-64
2022/06/16 03:41:00;;;;;;;164.57;115.13;;;29.40;99.90;;;;;;5052227;28;20071;-64
2022/06/16 03:43:26;;;;;;;103.00;53.05;;;29.40;99.90;;;;;;5051119;28;20199;-64
2022/06/16 03:45:53;;;;;;;199.55;128.57;;;29.50;99.90;;;;;;5043586;28;20463;-61
2022/06/16 03:48:20;;;;;;;153.07;52.60;;;29.50;99.90;;;;;;5030732;28;20044;-64
2022/06/16 03:50:47;;;;;;;92.60;53.70;;;29.50;99.90;;;;;;5040817;28;20176;-63
2022/06/16 03:53:13;;;;;;;123.47;88.55;;;29.50;99.90;;;;;;5040587;28;20044;-63
2022/06/16 03:55:40;;;;;;;74.15;51.15;;;29.60;99.90;;;;;;5040213;28;20021;-65
2022/06/16 03:58:07;;;;;;;41.55;29.77;;;29.60;99.90;;;;;;5046409;28;20041;-63
2022/06/16 04:00:34;;;;;;;75.15;57.55;;;29.60;99.90;;;;;;5042497;28;20472;-63
2022/06/16 04:05:47;;;;;;;251.63;219.98;;;29.60;99.90;;;;;;5039476;28;20032;-65
2022/06/16 04:08:16;;;;;;;32.58;23.52;;;29.60;99.90;;;;;;5042086;28;20060;-64
2022/06/16 04:10:44;;;;;;;58.55;51.58;;;29.70;99.90;;;;;;5048203;28;20025;-64
2022/06/16 04:13:10;;;;;;;18.55;13.15;;;29.70;99.90;;;;;;5045298;28;20032;-64
2022/06/16 04:15:37;;;;;;;25.13;16.60;;;29.60;99.90;;;;;;5040793;28;20037;-64
2022/06/16 04:18:04;;;;;;;41.50;30.90;;;29.70;99.90;;;;;;5047541;28;20112;-64
2022/06/16 04:20:31;;;;;;;49.85;35.63;;;29.70;99.90;;;;;;5048781;28;20148;-64
2022/06/16 04:22:58;;;;;;;33.30;26.00;;;29.70;99.90;;;;;;5050552;28;20473;-64
2022/06/16 04:25:31;;;;;;;37.03;27.70;;;29.80;99.90;;;;;;5053602;28;20100;-65
2022/06/16 04:28:02;;;;;;;94.53;68.60;;;29.80;99.90;;;;;;5054493;28;20025;-64
2022/06/16 04:30:29;;;;;;;33.75;22.15;;;29.80;99.90;;;;;;5051701;28;20070;-63
2022/06/16 04:32:57;;;;;;;56.80;35.35;;;29.80;99.90;;;;;;5051968;28;20036;-65
2022/06/16 04:35:24;;;;;;;47.63;26.83;;;29.70;99.90;;;;;;5050769;28;20033;-63
2022/06/16 04:37:51;;;;;;;51.47;34.50;;;29.70;99.90;;;;;;5050492;28;20100;-63
2022/06/16 04:40:18;;;;;;;40.33;26.75;;;29.70;99.90;;;;;;5049845;28;20107;-66
2022/06/16 04:42:45;;;;;;;31.55;19.50;;;29.80;99.90;;;;;;5050719;28;20023;-63
2022/06/16 04:45:12;;;;;;;11.93;8.15;;;29.90;99.90;;;;;;5050795;28;20033;-66
2022/06/16 04:47:39;;;;;;;15.45;9.15;;;29.90;99.90;;;;;;5051294;28;20033;-68
2022/06/16 04:50:08;;;;;;;45.83;31.73;;;29.90;99.90;;;;;;5050358;28;20121;-67
2022/06/16 04:52:35;;;;;;;24.67;14.32;;;29.90;99.90;;;;;;5050571;28;20056;-66
2022/06/16 04:55:01;;;;;;;18.73;9.82;;;29.80;99.90;;;;;;5051139;28;20025;-64
2022/06/16 04:57:28;;;;;;;18.35;12.02;;;29.80;99.90;;;;;;5051907;28;20025;-64
2022/06/16 04:59:55;;;;;;;20.13;13.70;;;29.80;99.90;;;;;;5050493;28;20033;-64
2022/06/16 05:02:21;;;;;;;20.10;11.95;;;29.80;99.90;;;;;;5052944;28;20037;-64
2022/06/16 05:04:48;;;;;;;20.77;12.68;;;29.90;99.90;;;;;;5051227;28;20463;-65
2022/06/16 05:07:15;;;;;;;16.65;10.98;;;29.80;99.90;;;;;;5053808;28;20017;-65
2022/06/16 05:09:41;;;;;;;21.45;11.65;;;29.90;99.90;;;;;;5054932;28;20110;-65
2022/06/16 05:12:08;;;;;;;19.15;12.75;;;29.90;99.90;;;;;;5047858;28;20025;-66
2022/06/16 05:14:35;;;;;;;22.77;13.52;;;29.90;99.90;;;;;;5053295;28;20044;-65
2022/06/16 05:17:02;;;;;;;24.20;14.20;;;29.90;99.90;;;;;;5053200;28;20042;-65
2022/06/16 05:19:30;;;;;;;36.13;22.13;;;29.90;99.90;;;;;;5059293;28;20040;-67
2022/06/16 05:22:00;;;;;;;21.00;10.98;;;30.00;99.90;;;;;;5056386;28;20043;-65
2022/06/16 05:24:27;;;;;;;18.90;11.10;;;30.00;99.90;;;;;;5055387;28;20029;-65
2022/06/16 05:26:55;;;;;;;14.57;9.60;;;30.00;99.90;;;;;;5056076;28;20025;-66
2022/06/16 05:29:21;;;;;;;17.23;10.02;;;30.10;99.90;;;;;;5054866;28;20443;-65
2022/06/16 05:31:48;;;;;;;17.30;10.52;;;30.10;99.90;;;;;;5054502;28;20411;-65
2022/06/16 05:34:15;;;;;;;16.20;9.25;;;30.10;99.90;;;;;;5054382;28;20027;-64
2022/06/16 05:36:46;;;;;;;15.30;10.90;;;30.10;99.90;;;;;;5053818;28;20537;-66
2022/06/16 05:39:13;;;;;;;20.52;13.02;;;30.10;99.90;;;;;;5051014;28;20146;-65
2022/06/16 05:41:41;;;;;;;16.70;10.15;;;30.20;99.90;;;;;;5046395;28;20033;-65
2022/06/16 05:44:09;;;;;;;20.73;11.30;;;30.30;99.90;;;;;;5046175;28;20104;-65
2022/06/16 05:46:36;;;;;;;18.42;11.63;;;30.30;99.90;;;;;;5044794;28;20056;-65
2022/06/16 05:49:03;;;;;;;20.35;13.75;;;30.40;99.90;;;;;;5053552;28;20027;-64
2022/06/16 05:51:30;;;;;;;19.30;10.70;;;30.40;99.90;;;;;;5045414;28;20547;-65
2022/06/16 05:53:57;;;;;;;14.30;8.85;;;30.50;99.90;;;;;;5042267;28;20029;-65
2022/06/16 05:56:23;;;;;;;15.25;10.50;;;30.50;99.90;;;;;;5045996;28;20067;-65
2022/06/16 05:58:50;;;;;;;18.35;10.23;;;30.50;99.90;;;;;;5052386;28;20020;-63
2022/06/16 06:01:17;;;;;;;18.42;8.88;;;30.50;99.90;;;;;;5046304;28;20051;-65
2022/06/16 06:03:44;;;;;;;17.33;10.07;;;30.50;99.90;;;;;;5041457;28;20024;-64
2022/06/16 06:06:11;;;;;;;15.00;10.25;;;30.50;99.90;;;;;;5049966;28;20308;-65
2022/06/16 06:17:12;;;;;;;33.85;20.63;;;30.60;99.90;;;;;;5057055;28;20047;-64
2022/06/16 06:19:39;;;;;;;28.95;17.75;;;30.60;99.90;;;;;;5056290;28;20075;-64
2022/06/16 06:22:13;;;;;;;14.57;9.70;;;30.60;99.90;;;;;;5058103;28;20063;-65
2022/06/16 06:24:45;;;;;;;22.40;13.43;;;30.60;99.90;;;;;;5043753;28;20029;-65
2022/06/16 06:27:29;;;;;;;17.52;12.18;;;30.70;99.90;;;;;;5045265;28;20078;-65
2022/06/16 06:29:55;;;;;;;23.15;13.27;;;30.70;99.90;;;;;;5046505;28;20036;-65
2022/06/16 06:32:24;;;;;;;14.30;11.15;;;30.80;99.90;;;;;;5048478;28;20033;-65
2022/06/16 06:34:51;;;;;;;23.70;14.50;;;30.80;99.90;;;;;;5049788;28;20035;-64
2022/06/16 06:37:21;;;;;;;47.45;23.40;;;30.80;99.90;;;;;;5044867;28;20029;-64
2022/06/16 06:39:49;;;;;;;40.70;22.15;;;30.90;99.90;;;;;;5042530;28;20028;-64
2022/06/16 06:42:16;;;;;;;18.20;10.18;;;31.00;99.90;;;;;;5053700;28;20028;-65
2022/06/16 06:44:43;;;;;;;14.52;9.88;;;31.00;99.90;;;;;;5064137;28;20107;-64
2022/06/16 06:47:21;;;;;;;17.25;7.88;;;31.00;99.90;;;;;;5057204;28;20029;-64
2022/06/16 06:49:48;;;;;;;11.05;6.97;;;30.90;99.90;;;;;;5052598;28;20033;-64
2022/06/16 06:52:15;;;;;;;13.60;9.82;;;30.90;99.90;;;;;;5053018;28;20036;-66
2022/06/16 06:54:43;;;;;;;14.60;8.82;;;30.80;99.90;;;;;;5054678;28;20029;-64
2022/06/16 06:57:13;;;;;;;13.82;8.10;;;30.80;99.90;;;;;;5054157;28;20090;-65
2022/06/16 06:59:40;;;;;;;18.15;7.72;;;30.80;99.90;;;;;;5054242;28;20498;-64
2022/06/16 07:02:11;;;;;;;11.38;5.75;;;30.90;99.90;;;;;;5056578;28;20028;-64
2022/06/16 07:04:39;;;;;;;9.43;4.20;;;30.90;99.90;;;;;;5042182;28;20024;-63
2022/06/16 07:07:08;;;;;;;10.32;7.03;;;30.90;99.90;;;;;;5052748;28;20033;-63
2022/06/16 07:09:35;;;;;;;13.88;8.05;;;31.00;99.90;;;;;;5050574;28;20037;-64
2022/06/16 07:12:02;;;;;;;12.90;6.90;;;31.00;99.90;;;;;;5055784;28;20028;-64
2022/06/16 07:14:30;;;;;;;12.77;9.07;;;31.10;99.90;;;;;;5057913;28;20048;-64
2022/06/16 07:16:57;;;;;;;11.05;7.22;;;31.00;99.90;;;;;;5060388;28;20047;-65
2022/06/16 07:19:24;;;;;;;12.27;7.15;;;31.00;99.90;;;;;;5098681;22;20491;-61
2022/06/16 07:21:50;;;;;;;13.48;6.88;;;31.00;99.90;;;;;;5091990;28;20024;-62
2022/06/16 07:24:17;;;;;;;9.13;5.70;;;30.90;99.90;;;;;;5092041;28;20455;-63
2022/06/16 07:26:44;;;;;;;13.68;7.47;;;31.00;99.90;;;;;;5092187;28;20028;-63
2022/06/16 07:29:10;;;;;;;11.05;7.50;;;30.90;99.90;;;;;;5089005;28;20024;-62
2022/06/16 07:31:37;;;;;;;17.05;7.53;;;30.90;99.90;;;;;;5093405;28;20043;-63
2022/06/16 07:34:04;;;;;;;20.30;8.05;;;30.90;99.90;;;;;;5092288;28;20026;-63
2022/06/16 07:36:30;;;;;;;14.63;8.10;;;30.90;99.90;;;;;;5084024;28;20020;-62
2022/06/16 07:38:57;;;;;;;13.75;6.47;;;31.00;99.90;;;;;;5073259;28;20025;-64
2022/06/16 07:41:34;;;;;;;23.17;12.55;;;31.00;99.90;;;;;;5086726;28;20489;-63
2022/06/16 07:44:05;;;;;;;12.93;7.75;;;31.00;99.90;;;;;;5085332;28;20037;-63
2022/06/16 07:46:32;;;;;;;12.30;7.00;;;31.00;99.90;;;;;;5084703;28;20326;-64
2022/06/16 07:48:59;;;;;;;12.13;7.75;;;30.90;99.90;;;;;;5081647;28;20024;-64
2022/06/16 07:51:25;;;;;;;23.48;12.55;;;30.80;99.90;;;;;;5085135;28;20070;-64
2022/06/16 07:53:52;;;;;;;51.97;26.33;;;30.90;99.90;;;;;;5086481;28;20024;-65
2022/06/16 07:56:20;;;;;;;25.52;17.55;;;31.00;99.90;;;;;;5064004;28;20075;-65
2022/06/16 07:58:47;;;;;;;40.88;25.80;;;31.00;99.90;;;;;;5081097;28;20028;-66
2022/06/16 08:01:15;;;;;;;54.25;31.35;;;31.10;99.90;;;;;;5083002;28;20023;-64
2022/06/16 08:03:42;;;;;;;217.55;159.60;;;31.10;99.90;;;;;;5087006;28;20386;-63
2022/06/16 08:06:13;;;;;;;65.55;38.97;;;31.10;99.90;;;;;;5082080;28;20020;-64
2022/06/16 08:12:03;;;;;;;24.15;13.90;;;31.30;99.90;;;;;;5064783;28;20045;-64
2022/06/16 08:14:00;;;;;;;32.58;20.90;;;31.40;99.90;;;;;;5072148;28;20024;-66
2022/06/16 08:16:32;;;;;;;18.00;10.40;;;31.40;99.90;;;;;;5063248;28;20021;-65
2022/06/16 08:19:00;;;;;;;19.40;11.02;;;31.40;99.90;;;;;;5073967;28;20081;-65
2022/06/16 08:21:27;;;;;;;87.50;59.60;;;31.40;99.90;;;;;;5071856;28;20025;-65
2022/06/16 08:23:54;;;;;;;79.10;60.55;;;31.40;99.80;;;;;;5073551;28;20020;-64
2022/06/16 08:26:21;;;;;;;11.85;8.60;;;31.30;99.80;;;;;;5071121;28;20500;-64
2022/06/16 08:28:54;;;;;;;24.65;15.80;;;31.20;99.90;;;;;;5073435;28;20028;-64
2022/06/16 08:31:21;;;;;;;;;;;31.30;99.90;;;;;;5073415;28;20024;-64
2022/06/16 08:33:49;;;;;;;19.48;12.88;;;31.40;99.90;;;;;;5073246;28;19978;-63
2022/06/16 08:36:16;;;;;;;14.45;7.75;;;31.40;99.20;;;;;;5070130;28;20028;-63
2022/06/16 08:38:44;;;;;;;13.07;8.15;;;31.50;99.50;;;;;;5074703;28;20021;-64
2022/06/16 08:41:16;;;;;;;9.68;5.30;;;31.40;99.00;;;;;;5073863;28;20020;-65
2022/06/16 08:44:01;;;;;;;14.40;9.82;;;31.30;99.70;;;;;;5074472;28;20052;-64
2022/06/16 08:46:38;;;;;;;8.63;5.18;;;31.20;99.30;;;;;;5073032;28;20463;-64
2022/06/16 08:49:18;;;;;;;7.88;5.30;;;31.20;98.30;;;;;;5072773;28;20419;-65
2022/06/16 08:52:06;;;;;;;28.77;14.80;;;31.20;98.20;;;;;;5074534;28;20021;-62
2022/06/16 08:54:40;;;;;;;11.68;6.60;;;31.10;98.70;;;;;;5066809;28;20649;-63
2022/06/16 08:57:26;;;;;;;18.30;8.13;;;31.10;99.30;;;;;;5072921;28;20066;-65
2022/06/16 09:00:01;;;;;;;14.63;6.35;;;31.10;99.90;;;;;;5072711;28;20044;-63
2022/06/16 09:02:37;;;;;;;8.45;5.93;;;31.00;99.90;;;;;;5072248;28;20024;-64
2022/06/16 09:05:13;;;;;;;8.18;5.30;;;31.10;99.60;;;;;;5072141;28;20074;-63
2022/06/16 09:07:48;;;;;;;9.40;5.45;;;31.10;99.80;;;;;;5069806;28;20123;-64
2022/06/16 09:10:30;;;;;;;24.77;13.10;;;31.10;99.90;;;;;;5067187;28;20045;-63
2022/06/16 09:13:26;;;;;;;23.80;17.67;;;31.10;99.80;;;;;;5069204;28;20029;-63
2022/06/16 09:16:05;;;;;;;14.32;9.93;;;31.10;99.30;;;;;;5068495;28;20016;-63
2022/06/16 09:18:53;;;;;;;18.38;8.13;;;31.10;99.20;;;;;;5067901;28;20353;-64
2022/06/16 09:21:25;;;;;;;36.30;25.27;;;31.10;99.70;;;;;;5069950;28;20070;-63
2022/06/16 09:24:05;;;;;;;15.98;11.63;;;31.10;99.40;;;;;;5073996;28;20020;-64
2022/06/16 09:26:44;;;;;;;26.98;23.38;;;31.10;99.40;;;;;;5072473;28;20013;-64
2022/06/16 09:29:20;;;;;;;134.13;120.75;;;31.10;99.50;;;;;;5072043;28;20020;-64
2022/06/16 09:32:07;;;;;;;77.32;68.32;;;31.10;99.70;;;;;;5073785;28;20016;-63
2022/06/16 09:34:52;;;;;;;65.28;52.47;;;31.10;99.90;;;;;;5054658;28;20057;-65
2022/06/16 09:37:45;;;;;;;21.65;12.93;;;31.10;99.90;;;;;;5072649;28;20451;-63
2022/06/16 09:40:12;;;;;;;19.75;13.15;;;31.00;99.60;;;;;;5073675;28;20037;-64
2022/06/16 09:43:03;;;;;;;37.05;20.48;;;30.90;99.90;;;;;;5073911;28;20021;-63
2022/06/16 09:45:41;;;;;;;46.50;16.48;;;30.80;99.90;;;;;;5061192;28;20033;-63
2022/06/16 09:48:14;;;;;;;32.13;18.73;;;30.50;99.90;;;;;;5067427;28;20491;-63
2022/06/16 09:51:00;;;;;;;64.50;42.58;;;30.00;99.90;;;;;;5073656;28;20075;-63
2022/06/16 09:53:33;;;;;;;52.35;33.20;;;29.70;99.90;;;;;;5063818;28;20032;-65
2022/06/16 09:56:06;;;;;;;65.22;40.05;;;29.60;99.90;;;;;;5063546;28;20475;-65
2022/06/16 09:58:55;;;;;;;22.27;14.27;;;29.40;99.90;;;;;;5065656;28;20147;-64
2022/06/16 10:01:28;;;;;;;34.20;20.38;;;29.10;99.90;;;;;;5062297;28;20035;-63
2022/06/16 10:04:01;;;;;;;30.23;22.13;;;28.90;99.90;;;;;;5066855;28;20030;-66
2022/06/16 10:06:36;;;;;;;19.45;13.10;;;28.80;99.90;;;;;;5063350;28;20020;-66
2022/06/16 10:09:14;;;;;;;17.55;11.50;;;28.70;99.90;;;;;;5067265;28;20025;-64
2022/06/16 10:11:59;;;;;;;16.45;9.80;;;28.80;99.90;;;;;;5072358;28;20493;-65
2022/06/16 10:14:47;;;;;;;20.92;9.73;;;28.90;99.90;;;;;;5074180;28;20021;-64
2022/06/16 10:17:18;;;;;;;22.05;10.48;;;28.90;99.90;;;;;;5072644;28;20230;-64
2022/06/16 10:19:45;;;;;;;23.85;11.77;;;28.90;99.90;;;;;;5070250;28;20478;-63
2022/06/16 10:22:17;;;;;;;22.25;10.63;;;28.90;99.90;;;;;;5073058;28;20439;-64
2022/06/16 10:24:53;;;;;;;47.78;28.00;;;28.90;99.90;;;;;;5073107;28;20025;-65
2022/06/16 10:27:21;;;;;;;53.80;36.28;;;28.90;99.90;;;;;;5066910;28;20185;-65
2022/06/16 10:29:59;;;;;;;31.20;21.15;;;28.80;99.90;;;;;;5070461;28;20021;-65
2022/06/16 10:32:35;;;;;;;44.95;32.67;;;28.70;99.90;;;;;;5072921;28;20313;-64
2022/06/16 10:35:03;;;;;;;27.95;16.05;;;28.70;99.90;;;;;;5073298;28;20032;-64
2022/06/16 10:37:31;;;;;;;19.23;11.98;;;28.70;99.90;;;;;;5075260;28;20055;-65
2022/06/16 10:40:05;;;;;;;19.10;11.07;;;28.70;99.90;;;;;;5073061;28;20092;-66
2022/06/16 10:42:52;;;;;;;22.02;12.07;;;28.60;99.90;;;;;;5072664;28;20047;-65
2022/06/16 10:45:29;;;;;;;24.50;11.45;;;28.70;99.90;;;;;;5073000;28;20493;-65
2022/06/16 10:48:04;;;;;;;21.92;12.27;;;28.60;99.90;;;;;;5071397;28;20098;-66
2022/06/16 10:50:35;;;;;;;18.55;12.23;;;28.70;99.90;;;;;;5070711;28;20051;-65
2022/06/16 10:53:05;;;;;;;15.27;11.07;;;28.70;99.90;;;;;;5073480;28;20348;-65
2022/06/16 10:55:42;;;;;;;20.33;12.98;;;28.70;99.90;;;;;;5073980;28;20364;-64
2022/06/16 10:58:23;;;;;;;21.60;13.30;;;28.70;99.90;;;;;;5073366;28;20028;-65
2022/06/16 11:01:23;;;;;;;23.80;12.93;;;28.70;99.90;;;;;;5071239;28;20066;-64
2022/06/16 11:03:54;;;;;;;19.08;11.00;;;28.70;99.90;;;;;;5071449;28;20029;-66
2022/06/16 11:06:23;;;;;;;23.27;12.20;;;28.80;99.90;;;;;;5072209;28;20017;-63
2022/06/16 11:08:58;;;;;;;28.70;16.75;;;28.70;99.90;;;;;;5068761;28;20024;-64
2022/06/16 11:11:40;;;;;;;44.28;24.77;;;28.70;99.90;;;;;;5072124;28;20074;-64
2022/06/16 11:14:23;;;;;;;29.90;19.15;;;28.70;99.90;;;;;;5069785;28;20048;-66
2022/06/16 11:16:54;;;;;;;21.05;12.45;;;28.70;99.90;;;;;;5071889;28;20035;-64
2022/06/16 11:19:37;;;;;;;22.75;13.07;;;28.70;99.90;;;;;;5069745;28;20041;-65
2022/06/16 11:22:14;;;;;;;26.70;15.70;;;28.70;99.90;;;;;;5071416;28;20033;-65
2022/06/16 11:24:45;;;;;;;35.92;18.08;;;28.70;99.90;;;;;;5071044;28;20047;-65
2022/06/16 11:27:16;;;;;;;39.08;21.30;;;28.80;99.90;;;;;;5064925;28;20020;-65
2022/06/16 11:29:43;;;;;;;40.42;23.35;;;28.70;99.90;;;;;;5062215;28;20100;-65
2022/06/16 11:32:28;;;;;;;29.77;19.80;;;28.80;99.90;;;;;;5064996;28;20441;-65
2022/06/16 11:34:55;;;;;;;39.78;20.98;;;28.80;99.90;;;;;;5061377;28;20036;-65
2022/06/16 11:37:51;;;;;;;37.33;22.02;;;28.70;99.90;;;;;;5068285;28;20032;-65
2022/06/16 11:40:19;;;;;;;35.35;21.25;;;28.70;99.90;;;;;;5064585;28;20056;-64
2022/06/16 11:43:11;;;;;;;65.07;43.38;;;28.60;99.90;;;;;;5068356;28;20124;-65
2022/06/16 11:45:46;;;;;;;112.38;76.85;;;28.60;99.90;;;;;;5068766;28;20031;-65
2022/06/16 11:48:35;;;;;;;62.45;40.33;;;28.60;99.90;;;;;;5067743;28;20021;-65
2022/06/16 11:51:27;;;;;;;47.80;31.73;;;28.60;99.90;;;;;;5071459;28;20021;-66
2022/06/16 11:54:04;;;;;;;49.50;30.75;;;28.60;99.90;;;;;;5068481;28;20311;-66
2022/06/16 11:57:00;;;;;;;55.70;32.20;;;28.60;99.90;;;;;;5049916;28;20081;-66
2022/06/16 11:59:27;;;;;;;53.38;29.42;;;28.60;99.90;;;;;;5070509;28;20037;-66
2022/06/16 12:02:24;;;;;;;53.85;29.55;;;28.50;99.90;;;;;;5069895;28;20111;-66
2022/06/16 12:05:04;;;;;;;51.80;32.92;;;28.50;99.90;;;;;;5068941;28;20467;-65
2022/06/16 12:07:53;;;;;;;60.00;32.33;;;28.50;99.90;;;;;;5068797;28;20498;-64
2022/06/16 12:10:22;;;;;;;48.95;29.15;;;28.50;99.90;;;;;;5066890;28;20044;-65
2022/06/16 12:13:00;;;;;;;59.20;31.60;;;28.60;99.90;;;;;;5071568;28;20032;-66
2022/06/16 12:15:34;;;;;;;57.42;32.47;;;28.50;99.90;;;;;;5071757;28;20186;-66
2022/06/16 12:18:09;;;;;;;68.82;36.78;;;28.60;99.90;;;;;;5068640;28;20032;-65
2022/06/16 12:20:37;;;;;;;63.53;35.00;;;28.60;99.90;;;;;;5068865;28;20056;-65
2022/06/16 12:23:28;;;;;;;67.60;37.53;;;28.50;99.90;;;;;;5070981;28;20032;-64
2022/06/16 12:25:58;;;;;;;63.00;39.63;;;28.60;99.90;;;;;;5062019;28;20052;-64
2022/06/16 12:28:36;;;;;;;61.75;35.40;;;28.50;99.90;;;;;;5072008;28;20035;-64
2022/06/16 12:31:19;;;;;;;51.67;31.25;;;28.50;99.90;;;;;;5067584;28;20067;-65
2022/06/16 12:33:53;;;;;;;51.33;31.70;;;28.50;99.90;;;;;;5067522;28;20025;-65
2022/06/16 12:36:27;;;;;;;45.50;29.92;;;28.50;99.90;;;;;;5066445;28;20028;-64
2022/06/16 12:39:04;;;;;;;54.92;33.20;;;28.50;99.90;;;;;;5069166;28;20032;-66
2022/06/16 12:41:39;;;;;;;61.03;37.05;;;28.50;99.90;;;;;;5066739;28;20017;-64
2022/06/16 12:44:10;;;;;;;63.50;35.75;;;28.50;99.90;;;;;;5067104;28;20112;-64
2022/06/16 12:46:48;;;;;;;60.70;36.08;;;28.50;99.90;;;;;;5073442;28;20035;-64
2022/06/16 12:49:37;;;;;;;62.92;37.30;;;28.50;99.90;;;;;;5072981;28;20032;-64
2022/06/16 12:52:28;;;;;;;68.90;39.90;;;28.50;99.90;;;;;;5073371;28;20063;-65
2022/06/16 12:55:15;;;;;;;69.15;40.13;;;28.50;99.90;;;;;;5074674;28;20037;-63
2022/06/16 12:57:51;;;;;;;60.40;36.92;;;28.40;99.90;;;;;;5075319;28;20393;-63
2022/06/16 13:00:21;;;;;;;49.05;33.10;;;28.50;99.90;;;;;;5076291;28;20462;-63
2022/06/16 13:02:59;;;;;;;70.82;39.67;;;28.40;99.90;;;;;;5067735;28;20036;-64
2022/06/16 13:05:26;;;;;;;50.05;31.67;;;28.50;99.90;;;;;;5067352;28;20512;-62
2022/06/16 13:07:56;;;;;;;46.92;28.95;;;28.40;99.90;;;;;;5076134;28;20052;-63
2022/06/16 13:10:24;;;;;;;44.95;25.98;;;28.40;99.90;;;;;;5075914;28;20051;-64
2022/06/16 13:12:55;;;;;;;42.10;24.05;;;28.40;99.90;;;;;;5072835;28;20356;-63
2022/06/16 13:15:35;;;;;;;42.88;25.55;;;28.30;99.90;;;;;;5074688;28;20464;-63
2022/06/16 13:18:16;;;;;;;42.80;25.77;;;28.40;99.90;;;;;;5074716;28;20114;-63
2022/06/16 13:20:47;;;;;;;48.13;28.00;;;28.40;99.90;;;;;;5069531;28;20486;-64